Time;durP1;ratioP1;P1;durP2;ratioP2;P2;SDS_P1;SDS_P2;PMS_P1;PMS_P2;Temp;Humidity;BMP_temperature;BMP_pressure;BME280_temperature;BME280_humidity;BME280_pressure;Samples;Min_cycle;Max_cycle;Signal;HPM_P1;HPM_P2
2023/05/20 00:00:52;;;;;;;2.28;1.40;;;13.00;99.90;;;;;;5042766;28;20285;-64
2023/05/20 00:03:20;;;;;;;3.08;1.52;;;13.00;99.90;;;;;;5010947;28;20201;-64
2023/05/20 00:05:47;;;;;;;4.38;1.55;;;13.00;99.90;;;;;;5031921;28;20193;-64
2023/05/20 00:08:13;;;;;;;2.13;1.45;;;13.00;99.90;;;;;;5025458;28;20201;-64
2023/05/20 00:10:41;;;;;;;4.75;1.73;;;13.00;99.90;;;;;;5033095;28;20212;-64
2023/05/20 00:13:09;;;;;;;2.53;1.23;;;13.10;99.90;;;;;;5005029;28;20228;-64
2023/05/20 00:15:35;;;;;;;1.48;1.33;;;13.00;99.90;;;;;;5037290;28;20686;-64
2023/05/20 00:18:03;;;;;;;3.40;1.25;;;13.00;99.90;;;;;;5030195;28;20215;-63
2023/05/20 00:20:31;;;;;;;1.90;1.60;;;13.00;99.90;;;;;;5026145;28;20410;-64
2023/05/20 00:22:57;;;;;;;3.65;1.45;;;13.00;99.90;;;;;;5025883;28;20205;-63
2023/05/20 00:25:24;;;;;;;1.27;1.17;;;13.00;99.90;;;;;;5019596;28;20967;-64
2023/05/20 00:27:51;;;;;;;1.95;1.25;;;13.00;99.90;;;;;;5001848;28;20215;-64
2023/05/20 00:30:19;;;;;;;2.58;1.30;;;13.00;99.90;;;;;;5032725;28;20211;-64
2023/05/20 00:32:46;;;;;;;1.77;1.27;;;13.00;99.90;;;;;;5028935;28;20578;-63
2023/05/20 00:35:12;;;;;;;1.20;1.10;;;13.00;99.90;;;;;;5023819;28;20205;-64
2023/05/20 00:37:39;;;;;;;2.25;1.20;;;12.90;99.90;;;;;;5012845;28;20229;-64
2023/05/20 00:40:07;;;;;;;2.42;1.52;;;12.90;99.90;;;;;;5016749;28;20224;-64
2023/05/20 00:42:34;;;;;;;2.33;1.00;;;12.90;99.90;;;;;;5001446;28;20220;-64
2023/05/20 00:45:01;;;;;;;5.60;1.20;;;12.90;99.90;;;;;;5032657;28;20193;-64
2023/05/20 00:47:32;;;;;;;4.13;1.40;;;12.80;99.90;;;;;;5021135;28;20225;-63
2023/05/20 00:50:00;;;;;;;3.65;1.48;;;12.80;99.90;;;;;;5038339;28;20205;-64
2023/05/20 00:52:29;;;;;;;1.38;1.08;;;12.70;99.90;;;;;;5019623;28;20430;-64
2023/05/20 00:54:57;;;;;;;2.03;1.30;;;12.60;99.90;;;;;;5022696;28;20209;-64
2023/05/20 00:57:24;;;;;;;2.35;1.38;;;12.60;99.90;;;;;;4988062;28;20717;-64
2023/05/20 00:59:51;;;;;;;2.25;1.33;;;12.60;99.90;;;;;;5037576;28;20204;-64
2023/05/20 01:02:18;;;;;;;4.68;1.00;;;12.50;99.90;;;;;;5020650;28;20368;-64
2023/05/20 01:04:47;;;;;;;2.53;1.08;;;12.50;99.90;;;;;;5038101;28;20200;-64
2023/05/20 01:07:16;;;;;;;1.20;1.10;;;12.50;99.90;;;;;;5022568;28;20201;-63
2023/05/20 01:09:43;;;;;;;1.92;1.17;;;12.50;99.90;;;;;;5024389;28;20197;-63
2023/05/20 01:12:15;;;;;;;3.88;1.38;;;12.40;99.90;;;;;;5021053;28;20212;-64
2023/05/20 01:14:48;;;;;;;2.75;1.38;;;12.40;99.90;;;;;;5005891;28;20216;-63
2023/05/20 01:17:16;;;;;;;2.05;1.35;;;12.30;99.90;;;;;;5027268;28;20232;-64
2023/05/20 01:19:44;;;;;;;1.42;1.27;;;12.20;99.90;;;;;;5032682;28;21672;-63
2023/05/20 01:22:14;;;;;;;6.22;1.40;;;12.20;99.90;;;;;;5020941;28;20209;-64
2023/05/20 01:24:43;;;;;;;3.33;1.42;;;12.20;99.90;;;;;;5012844;28;20761;-64
2023/05/20 01:27:12;;;;;;;1.80;1.25;;;12.10;99.90;;;;;;5026563;28;20208;-64
2023/05/20 01:29:39;;;;;;;2.05;1.20;;;12.10;99.90;;;;;;4992405;28;20225;-63
2023/05/20 01:32:10;;;;;;;2.20;1.60;;;12.10;99.90;;;;;;5035984;28;24318;-63
2023/05/20 01:34:38;;;;;;;3.72;1.30;;;11.90;99.90;;;;;;5021606;28;20206;-63
2023/05/20 01:37:07;;;;;;;2.75;1.40;;;12.00;99.90;;;;;;5024428;28;20280;-63
2023/05/20 01:39:37;;;;;;;2.38;1.60;;;12.00;99.90;;;;;;5038970;28;20221;-63
2023/05/20 01:42:07;;;;;;;1.65;1.42;;;11.90;99.90;;;;;;5011184;28;20690;-63
2023/05/20 01:44:34;;;;;;;1.83;1.25;;;11.90;99.90;;;;;;5011537;28;20211;-63
2023/05/20 01:47:01;;;;;;;1.17;1.02;;;11.80;99.90;;;;;;5043146;28;20212;-63
2023/05/20 01:49:28;;;;;;;2.88;1.20;;;11.80;99.90;;;;;;5023351;28;20355;-63
2023/05/20 01:51:55;;;;;;;1.73;1.30;;;11.80;99.90;;;;;;5022672;28;20209;-63
2023/05/20 01:54:21;;;;;;;3.17;1.20;;;11.80;99.90;;;;;;5039836;28;20200;-63
2023/05/20 01:56:50;;;;;;;2.40;1.23;;;11.80;99.90;;;;;;5030317;28;20228;-63
2023/05/20 01:59:18;;;;;;;1.83;1.05;;;11.80;99.90;;;;;;5007368;28;20724;-63
2023/05/20 02:01:45;;;;;;;1.15;1.00;;;11.60;99.90;;;;;;5037292;28;21171;-63
2023/05/20 02:04:12;;;;;;;6.18;1.55;;;11.60;99.90;;;;;;5027338;28;20201;-63
2023/05/20 02:06:39;;;;;;;2.53;1.30;;;11.60;99.90;;;;;;5033970;28;20763;-63
2023/05/20 02:09:07;;;;;;;3.10;1.38;;;11.60;99.90;;;;;;5025597;28;21397;-63
2023/05/20 02:11:34;;;;;;;2.50;1.50;;;11.60;99.90;;;;;;5039454;28;20201;-64
2023/05/20 02:14:00;;;;;;;1.55;1.20;;;11.50;99.90;;;;;;5025475;28;20232;-63
2023/05/20 02:16:28;;;;;;;1.90;1.30;;;11.50;99.90;;;;;;5007130;28;20217;-64
2023/05/20 02:18:57;;;;;;;3.15;1.42;;;11.50;99.90;;;;;;5045258;28;20212;-63
2023/05/20 02:21:24;;;;;;;2.95;1.40;;;11.50;99.90;;;;;;5027815;28;20254;-63
2023/05/20 02:23:51;;;;;;;2.80;1.63;;;11.40;99.90;;;;;;5030041;28;20205;-64
2023/05/20 02:26:19;;;;;;;2.33;1.52;;;11.40;99.90;;;;;;5041670;28;20199;-64
2023/05/20 02:28:49;;;;;;;1.38;1.20;;;11.30;99.90;;;;;;5023224;28;20286;-63
2023/05/20 02:31:16;;;;;;;3.53;1.33;;;11.40;99.90;;;;;;5009633;28;20212;-63
2023/05/20 02:33:44;;;;;;;3.22;1.30;;;11.20;99.90;;;;;;5041645;28;20219;-63
2023/05/20 02:36:11;;;;;;;1.38;1.00;;;11.30;99.90;;;;;;5026652;28;20662;-63
2023/05/20 02:38:37;;;;;;;2.97;1.40;;;11.20;99.90;;;;;;5041487;28;20337;-63
2023/05/20 02:41:04;;;;;;;1.33;1.23;;;11.20;99.90;;;;;;5023203;28;20208;-63
2023/05/20 02:43:31;;;;;;;2.55;1.35;;;11.10;99.90;;;;;;5028904;28;20773;-63
2023/05/20 02:45:58;;;;;;;1.77;1.38;;;11.00;99.90;;;;;;5011495;28;20285;-63
2023/05/20 02:48:25;;;;;;;2.47;1.45;;;11.00;99.90;;;;;;5043536;28;20749;-64
2023/05/20 02:50:53;;;;;;;4.57;1.52;;;10.90;99.90;;;;;;5031363;28;20200;-64
2023/05/20 02:53:20;;;;;;;1.75;1.10;;;10.90;99.90;;;;;;5038396;28;20193;-63
2023/05/20 02:55:47;;;;;;;1.27;1.17;;;10.80;99.90;;;;;;5033573;28;20688;-63
2023/05/20 02:58:14;;;;;;;1.50;1.30;;;10.90;99.90;;;;;;5035264;28;20243;-63
2023/05/20 03:00:41;;;;;;;3.72;1.30;;;10.80;99.90;;;;;;5042330;28;20201;-63
2023/05/20 03:03:09;;;;;;;1.83;1.38;;;10.80;99.90;;;;;;5009067;28;20208;-63
2023/05/20 03:05:37;;;;;;;1.77;1.33;;;10.80;99.90;;;;;;5025727;28;20228;-63
2023/05/20 03:08:09;;;;;;;1.92;1.20;;;10.70;99.90;;;;;;5040782;28;20235;-64
2023/05/20 03:10:35;;;;;;;2.70;1.50;;;10.60;99.90;;;;;;5039989;28;20231;-63
2023/05/20 03:13:02;;;;;;;1.33;1.17;;;10.60;99.90;;;;;;5027706;28;20197;-63
2023/05/20 03:15:29;;;;;;;1.98;1.38;;;10.60;99.90;;;;;;5022932;28;20208;-63
2023/05/20 03:17:56;;;;;;;3.95;1.20;;;10.60;99.90;;;;;;5009182;28;20418;-63
2023/05/20 03:20:24;;;;;;;1.00;1.00;;;10.50;99.90;;;;;;5023133;28;20201;-64
2023/05/20 03:22:51;;;;;;;2.65;1.48;;;10.50;99.90;;;;;;5035655;28;20225;-63
2023/05/20 03:25:19;;;;;;;2.60;1.33;;;10.50;99.90;;;;;;5037744;28;20674;-63
2023/05/20 03:27:46;;;;;;;1.42;1.20;;;10.50;99.90;;;;;;5013984;28;20251;-63
2023/05/20 03:30:13;;;;;;;2.58;1.40;;;10.50;99.90;;;;;;5026504;28;20221;-63
2023/05/20 03:32:40;;;;;;;1.55;1.17;;;10.50;99.90;;;;;;5007128;28;20337;-64
2023/05/20 03:35:08;;;;;;;2.13;1.73;;;10.50;99.90;;;;;;5040299;28;20250;-63
2023/05/20 03:37:35;;;;;;;2.60;1.42;;;10.40;99.90;;;;;;5028404;28;20340;-63
2023/05/20 03:40:04;;;;;;;1.63;1.08;;;10.40;99.90;;;;;;5041942;28;20197;-63
2023/05/20 03:42:33;;;;;;;2.08;1.30;;;10.50;99.90;;;;;;5024960;28;20409;-63
2023/05/20 03:45:00;;;;;;;1.35;1.15;;;10.50;99.90;;;;;;5039785;28;20201;-63
2023/05/20 03:47:27;;;;;;;2.72;1.60;;;10.50;99.90;;;;;;5019654;28;20224;-63
2023/05/20 03:49:54;;;;;;;1.92;1.30;;;10.50;99.90;;;;;;5001553;28;20843;-63
2023/05/20 03:52:21;;;;;;;2.00;1.48;;;10.40;99.90;;;;;;5022891;28;20244;-63
2023/05/20 03:54:48;;;;;;;3.13;1.60;;;10.40;99.90;;;;;;5041598;28;20196;-63
2023/05/20 03:57:15;;;;;;;1.23;1.10;;;10.30;99.90;;;;;;5042117;28;20224;-63
2023/05/20 03:59:43;;;;;;;1.38;1.27;;;10.20;99.90;;;;;;5023789;28;20205;-63
2023/05/20 04:02:09;;;;;;;1.20;1.10;;;10.20;99.90;;;;;;5019900;28;20693;-63
2023/05/20 04:04:36;;;;;;;3.08;1.48;;;10.30;99.90;;;;;;5004746;28;21668;-63
2023/05/20 04:07:03;;;;;;;3.58;1.30;;;10.30;99.90;;;;;;5043572;28;20196;-63
2023/05/20 04:09:30;;;;;;;2.63;1.10;;;10.30;99.90;;;;;;5026898;28;21036;-64
2023/05/20 04:11:57;;;;;;;1.60;1.33;;;10.40;99.90;;;;;;5039035;28;20189;-63
2023/05/20 04:14:24;;;;;;;1.40;1.13;;;10.50;99.90;;;;;;5023196;28;20418;-63
2023/05/20 04:16:52;;;;;;;1.60;1.10;;;10.50;99.90;;;;;;5028754;28;20212;-63
2023/05/20 04:19:19;;;;;;;1.15;1.05;;;10.40;99.90;;;;;;5039700;28;20208;-63
2023/05/20 04:21:46;;;;;;;1.70;1.27;;;10.50;99.90;;;;;;5006736;28;20205;-63
2023/05/20 04:24:13;;;;;;;3.53;1.20;;;10.50;99.90;;;;;;5026316;28;20936;-63
2023/05/20 04:26:40;;;;;;;1.40;1.30;;;10.50;99.90;;;;;;5030743;28;20838;-63
2023/05/20 04:29:07;;;;;;;4.55;1.35;;;10.50;99.90;;;;;;5032269;28;20214;-64
2023/05/20 04:31:33;;;;;;;2.20;1.73;;;10.60;99.90;;;;;;5024335;28;20197;-63
2023/05/20 04:34:03;;;;;;;4.30;1.20;;;10.70;99.90;;;;;;5021899;28;20201;-64
2023/05/20 04:36:31;;;;;;;1.83;1.20;;;10.70;99.90;;;;;;5006596;28;20646;-63
2023/05/20 04:38:58;;;;;;;1.60;1.10;;;10.70;99.90;;;;;;5025025;28;20439;-63
2023/05/20 04:41:24;;;;;;;1.38;1.20;;;10.70;99.90;;;;;;5023368;28;20208;-63
2023/05/20 04:43:51;;;;;;;4.10;1.48;;;10.70;99.90;;;;;;5042225;28;20204;-63
2023/05/20 04:46:19;;;;;;;2.50;1.30;;;10.70;99.90;;;;;;5022952;28;20205;-63
2023/05/20 04:48:46;;;;;;;1.50;1.40;;;10.70;99.90;;;;;;5022355;28;20286;-63
2023/05/20 04:51:15;;;;;;;2.42;1.30;;;10.80;99.90;;;;;;5040661;28;20200;-63
2023/05/20 04:53:42;;;;;;;1.65;1.10;;;10.80;99.90;;;;;;5004697;28;20213;-63
2023/05/20 04:56:09;;;;;;;4.70;1.45;;;10.90;99.90;;;;;;5022443;28;20208;-64
2023/05/20 04:58:36;;;;;;;8.50;1.52;;;10.90;99.90;;;;;;5038694;28;20615;-63
2023/05/20 05:01:02;;;;;;;5.30;1.08;;;10.90;99.90;;;;;;5015569;28;20290;-63
2023/05/20 05:03:29;;;;;;;1.45;1.35;;;10.90;99.90;;;;;;5020949;28;20201;-63
2023/05/20 05:05:56;;;;;;;3.90;1.65;;;10.90;99.90;;;;;;5040878;28;20197;-63
2023/05/20 05:08:25;;;;;;;1.77;1.25;;;11.00;99.90;;;;;;4992239;28;21064;-63
2023/05/20 05:10:52;;;;;;;1.75;1.17;;;10.90;99.90;;;;;;5026788;28;20200;-63
2023/05/20 05:13:19;;;;;;;1.42;1.30;;;10.90;99.90;;;;;;5031441;28;20658;-63
2023/05/20 05:15:46;;;;;;;4.60;1.40;;;10.90;99.90;;;;;;5027829;28;20331;-63
2023/05/20 05:18:17;;;;;;;2.72;1.48;;;10.90;99.90;;;;;;5033014;28;20224;-63
2023/05/20 05:20:43;;;;;;;2.20;1.45;;;10.90;99.90;;;;;;5034407;28;20255;-63
2023/05/20 05:23:10;;;;;;;7.18;1.65;;;10.90;99.90;;;;;;5024137;28;20197;-63
2023/05/20 05:25:38;;;;;;;2.78;1.60;;;11.00;99.90;;;;;;5006524;28;20796;-63
2023/05/20 05:28:05;;;;;;;1.48;1.35;;;11.00;99.90;;;;;;5033466;28;20211;-63
2023/05/20 05:30:32;;;;;;;2.15;1.30;;;11.10;99.90;;;;;;5029282;28;20205;-63
2023/05/20 05:32:59;;;;;;;1.52;1.27;;;11.20;99.90;;;;;;5032864;28;20212;-63
2023/05/20 05:35:25;;;;;;;1.40;1.17;;;11.20;99.90;;;;;;5027600;28;20217;-64
2023/05/20 05:37:52;;;;;;;1.50;1.30;;;11.30;99.90;;;;;;5049464;28;20697;-63
2023/05/20 05:40:19;;;;;;;2.15;1.42;;;11.40;99.90;;;;;;5009736;28;20213;-64
2023/05/20 05:42:47;;;;;;;2.05;1.40;;;11.40;99.90;;;;;;5024597;28;20322;-63
2023/05/20 05:45:14;;;;;;;1.70;1.30;;;11.50;99.90;;;;;;5012260;28;20231;-63
2023/05/20 05:47:41;;;;;;;2.92;1.60;;;11.50;99.90;;;;;;5029336;28;20855;-63
2023/05/20 05:50:08;;;;;;;2.00;1.30;;;11.50;99.90;;;;;;5027791;28;20218;-64
2023/05/20 05:52:35;;;;;;;3.88;1.38;;;11.50;99.90;;;;;;5026485;28;20355;-64
2023/05/20 05:55:02;;;;;;;1.88;1.33;;;11.50;99.90;;;;;;5011109;28;20214;-64
2023/05/20 05:57:29;;;;;;;2.17;1.60;;;11.60;99.90;;;;;;5027056;28;20749;-63
2023/05/20 05:59:57;;;;;;;3.63;1.20;;;11.70;99.90;;;;;;5048589;28;20575;-63
2023/05/20 06:02:24;;;;;;;5.43;1.60;;;11.70;99.90;;;;;;5039112;28;20727;-64
2023/05/20 06:04:51;;;;;;;1.67;1.50;;;11.80;99.90;;;;;;5017807;28;20204;-63
2023/05/20 06:07:18;;;;;;;1.60;1.30;;;11.80;99.90;;;;;;5039566;28;20200;-63
2023/05/20 06:09:45;;;;;;;5.47;1.38;;;11.80;99.90;;;;;;5002226;28;20221;-64
2023/05/20 06:12:11;;;;;;;3.58;1.45;;;11.90;99.90;;;;;;5023062;28;20200;-64
2023/05/20 06:14:38;;;;;;;3.10;1.50;;;12.00;99.90;;;;;;5040605;28;20838;-63
2023/05/20 06:17:06;;;;;;;1.52;1.42;;;12.10;99.90;;;;;;5040083;28;20662;-63
2023/05/20 06:19:33;;;;;;;2.00;1.20;;;12.20;99.90;;;;;;5032909;28;20248;-63
2023/05/20 06:22:00;;;;;;;2.55;1.60;;;12.20;99.90;;;;;;5025703;28;20429;-63
2023/05/20 06:24:27;;;;;;;2.58;1.55;;;12.30;99.90;;;;;;5040875;28;20201;-64
2023/05/20 06:26:53;;;;;;;1.70;1.45;;;12.40;99.90;;;;;;5011483;28;20224;-63
2023/05/20 06:29:20;;;;;;;2.50;1.50;;;12.40;99.90;;;;;;5029886;28;20231;-63
2023/05/20 06:31:47;;;;;;;2.78;1.33;;;12.50;99.90;;;;;;5049265;28;20197;-63
2023/05/20 06:34:15;;;;;;;2.90;1.45;;;12.50;99.90;;;;;;5042653;28;20197;-63
2023/05/20 06:36:42;;;;;;;3.67;1.42;;;12.60;99.90;;;;;;5016969;28;20208;-63
2023/05/20 06:39:11;;;;;;;3.63;1.35;;;12.60;99.90;;;;;;5039680;28;20226;-64
2023/05/20 06:41:38;;;;;;;2.20;1.40;;;12.80;99.90;;;;;;5013153;28;20804;-64
2023/05/20 06:44:05;;;;;;;1.20;1.10;;;12.80;99.90;;;;;;5015849;28;20262;-64
2023/05/20 06:46:32;;;;;;;4.70;1.42;;;12.90;99.90;;;;;;5037478;28;20194;-63
2023/05/20 06:48:59;;;;;;;1.80;1.38;;;13.00;99.90;;;;;;5037622;28;20886;-64
2023/05/20 06:51:27;;;;;;;5.45;1.70;;;13.00;99.90;;;;;;5001376;28;21381;-63
2023/05/20 06:53:54;;;;;;;2.38;1.45;;;13.10;99.90;;;;;;5023340;28;20906;-63
2023/05/20 06:56:21;;;;;;;2.03;1.50;;;13.20;99.90;;;;;;5023009;28;20959;-64
2023/05/20 06:58:48;;;;;;;3.42;1.60;;;13.30;99.90;;;;;;4994874;28;20232;-64
2023/05/20 07:01:14;;;;;;;3.17;1.50;;;13.30;99.90;;;;;;5020248;28;20540;-64
2023/05/20 07:03:43;;;;;;;1.73;1.40;;;13.30;99.90;;;;;;5028620;28;20197;-64
2023/05/20 07:06:09;;;;;;;6.85;1.77;;;13.40;99.90;;;;;;5027846;28;20207;-63
2023/05/20 07:08:38;;;;;;;4.60;1.70;;;13.40;99.90;;;;;;4992074;28;20885;-64
2023/05/20 07:11:04;;;;;;;4.25;1.80;;;13.50;99.90;;;;;;5038030;28;20489;-64
2023/05/20 07:13:31;;;;;;;2.47;1.67;;;13.50;99.90;;;;;;4974457;28;20204;-64
2023/05/20 07:15:58;;;;;;;6.45;1.55;;;13.60;99.90;;;;;;5036801;28;20201;-63
2023/05/20 07:18:25;;;;;;;2.45;1.60;;;13.70;99.90;;;;;;5031779;28;20229;-64
2023/05/20 07:20:52;;;;;;;2.42;1.60;;;13.70;99.90;;;;;;5032360;28;20225;-63
2023/05/20 07:23:18;;;;;;;3.95;1.70;;;13.80;99.90;;;;;;5006834;28;20204;-64
2023/05/20 07:25:47;;;;;;;2.67;1.45;;;13.80;99.90;;;;;;5023913;28;20410;-64
2023/05/20 07:28:16;;;;;;;4.63;1.80;;;13.90;99.90;;;;;;4987996;28;20235;-64
2023/05/20 07:30:45;;;;;;;1.88;1.58;;;13.90;99.90;;;;;;5021599;28;20215;-64
2023/05/20 07:33:12;;;;;;;2.40;2.03;;;14.00;99.90;;;;;;5028766;28;20209;-64
2023/05/20 07:35:38;;;;;;;4.47;1.77;;;14.10;99.90;;;;;;5009160;28;20454;-64
2023/05/20 07:38:05;;;;;;;3.17;1.67;;;14.00;99.90;;;;;;5007862;28;20217;-64
2023/05/20 07:40:32;;;;;;;5.40;1.80;;;14.20;99.90;;;;;;5017130;28;20233;-63
2023/05/20 07:43:00;;;;;;;3.15;1.73;;;14.20;99.90;;;;;;5035119;28;20228;-64
2023/05/20 07:45:27;;;;;;;4.25;1.80;;;14.30;99.90;;;;;;4983931;28;20701;-64
2023/05/20 07:47:54;;;;;;;2.13;1.65;;;14.30;99.90;;;;;;5037423;28;20229;-63
2023/05/20 07:50:21;;;;;;;5.43;2.13;;;14.30;99.90;;;;;;5035609;28;20204;-64
2023/05/20 07:52:47;;;;;;;3.38;1.98;;;14.30;99.90;;;;;;5021257;28;20207;-64
2023/05/20 07:55:14;;;;;;;6.45;1.80;;;14.30;99.90;;;;;;5009436;28;20212;-64
2023/05/20 07:57:41;;;;;;;5.28;1.88;;;14.30;99.90;;;;;;5031449;28;20432;-64
2023/05/20 08:00:12;;;;;;;4.10;2.03;;;14.30;99.90;;;;;;4981968;28;20232;-64
2023/05/20 08:02:39;;;;;;;3.80;1.60;;;14.40;99.90;;;;;;5001623;28;20721;-64
2023/05/20 08:05:07;;;;;;;3.83;1.90;;;14.40;99.90;;;;;;5010831;28;20216;-63
2023/05/20 08:07:34;;;;;;;4.63;1.60;;;14.40;99.90;;;;;;5007169;28;20568;-64
2023/05/20 08:10:01;;;;;;;4.13;1.75;;;14.50;99.90;;;;;;5012158;28;20231;-64
2023/05/20 08:12:28;;;;;;;2.00;1.60;;;14.60;99.90;;;;;;5009947;28;20221;-64
2023/05/20 08:14:54;;;;;;;1.85;1.67;;;14.60;99.90;;;;;;4970842;28;22592;-64
2023/05/20 08:17:23;;;;;;;2.97;1.63;;;14.70;99.90;;;;;;5031336;28;20201;-63
2023/05/20 08:19:49;;;;;;;3.95;2.20;;;14.70;99.90;;;;;;5033874;28;20243;-63
2023/05/20 08:22:16;;;;;;;5.93;2.00;;;14.70;99.90;;;;;;5020143;28;20205;-64
2023/05/20 08:24:43;;;;;;;5.75;1.95;;;14.80;99.90;;;;;;5008307;28;20225;-64
2023/05/20 08:27:10;;;;;;;2.33;1.98;;;14.80;99.90;;;;;;5003426;28;20428;-63
2023/05/20 08:29:37;;;;;;;2.80;1.88;;;15.00;99.90;;;;;;5021919;28;20221;-64
2023/05/20 08:32:04;;;;;;;1.98;1.70;;;15.00;99.90;;;;;;4998753;28;20789;-63
2023/05/20 08:34:32;;;;;;;4.35;2.10;;;15.10;99.90;;;;;;5036762;28;20231;-64
2023/05/20 08:36:59;;;;;;;2.58;1.80;;;15.10;99.90;;;;;;5000546;28;22576;-64
2023/05/20 08:39:26;;;;;;;3.03;1.88;;;15.10;99.90;;;;;;5018083;28;20221;-63
2023/05/20 08:41:53;;;;;;;2.83;1.70;;;15.10;99.90;;;;;;5006179;28;20248;-64
2023/05/20 08:44:21;;;;;;;2.05;1.60;;;15.20;99.90;;;;;;5004926;28;20208;-63
2023/05/20 08:46:48;;;;;;;3.20;1.70;;;15.30;99.90;;;;;;4986719;28;20819;-64
2023/05/20 08:49:15;;;;;;;4.57;2.30;;;15.20;99.90;;;;;;5004634;28;20628;-64
2023/05/20 08:51:45;;;;;;;3.70;1.92;;;15.10;99.90;;;;;;5024760;28;20209;-64
2023/05/20 08:54:13;;;;;;;5.72;2.13;;;15.20;99.90;;;;;;5019564;28;20658;-64
2023/05/20 08:56:41;;;;;;;5.10;2.10;;;15.20;99.90;;;;;;5001045;28;20782;-64
2023/05/20 08:59:09;;;;;;;6.40;2.45;;;15.20;99.90;;;;;;5035569;28;20224;-63
2023/05/20 09:01:43;;;;;;;2.75;2.10;;;15.30;99.90;;;;;;4994872;28;20745;-65
2023/05/20 09:04:09;;;;;;;5.28;1.90;;;15.30;99.90;;;;;;5012810;28;20204;-64
2023/05/20 09:06:44;;;;;;;3.45;1.70;;;15.50;99.90;;;;;;5001084;28;20211;-64
2023/05/20 09:09:11;;;;;;;2.63;1.80;;;15.50;99.90;;;;;;5017702;28;20212;-64
2023/05/20 09:11:40;;;;;;;6.15;1.92;;;15.50;99.90;;;;;;4990959;28;20208;-64
2023/05/20 09:14:07;;;;;;;4.35;1.80;;;15.60;99.90;;;;;;5019068;28;20217;-64
2023/05/20 09:16:34;;;;;;;5.05;2.20;;;15.70;99.90;;;;;;4986948;28;20916;-64
2023/05/20 09:19:00;;;;;;;2.70;2.03;;;15.70;99.90;;;;;;5022856;28;20228;-64
2023/05/20 09:21:28;;;;;;;8.07;1.90;;;15.80;99.90;;;;;;5013597;28;20374;-64
2023/05/20 09:23:58;;;;;;;3.05;1.90;;;15.90;99.90;;;;;;5021563;28;20205;-63
2023/05/20 09:26:28;;;;;;;2.22;1.80;;;16.00;99.90;;;;;;5020128;28;20200;-64
2023/05/20 09:28:56;;;;;;;4.63;1.70;;;16.10;99.90;;;;;;5025489;28;20666;-64
2023/05/20 09:31:26;;;;;;;3.58;1.83;;;16.10;99.90;;;;;;5016345;28;20197;-64
2023/05/20 09:33:54;;;;;;;2.33;1.63;;;16.20;99.90;;;;;;5025682;28;20220;-64
2023/05/20 09:36:22;;;;;;;6.72;1.83;;;16.20;99.90;;;;;;5010844;28;20220;-64
2023/05/20 09:38:52;;;;;;;2.63;1.58;;;16.30;99.90;;;;;;5012044;28;20220;-65
2023/05/20 09:41:24;;;;;;;6.28;1.60;;;16.30;99.90;;;;;;5034006;28;20201;-64
2023/05/20 09:43:53;;;;;;;2.30;1.65;;;16.40;99.90;;;;;;5013694;28;20229;-64
2023/05/20 09:46:20;;;;;;;3.72;1.20;;;16.50;99.90;;;;;;5035515;28;20197;-64
2023/05/20 09:48:48;;;;;;;2.33;1.30;;;16.50;99.90;;;;;;4997898;28;20225;-64
2023/05/20 09:51:16;;;;;;;2.53;1.60;;;16.50;99.90;;;;;;5010295;28;20201;-64
2023/05/20 09:53:43;;;;;;;5.93;1.60;;;16.50;99.90;;;;;;5011130;28;20205;-64
2023/05/20 09:56:10;;;;;;;5.53;1.55;;;16.60;99.90;;;;;;5014916;28;20811;-64
2023/05/20 09:58:40;;;;;;;5.80;2.10;;;16.60;99.90;;;;;;5006934;28;20213;-63
2023/05/20 10:01:07;;;;;;;3.50;1.52;;;16.50;99.90;;;;;;5026926;28;20220;-64
2023/05/20 10:03:34;;;;;;;2.28;1.40;;;16.60;99.90;;;;;;4998421;28;20210;-64
2023/05/20 10:06:35;;;;;;;2.47;1.58;;;16.60;99.90;;;;;;5032575;28;20201;-64
2023/05/20 10:09:13;;;;;;;3.38;1.50;;;16.80;99.90;;;;;;5021439;28;20228;-65
2023/05/20 10:12:01;;;;;;;3.75;1.40;;;16.80;99.90;;;;;;5031649;28;20217;-63
2023/05/20 10:14:46;;;;;;;1.48;1.38;;;16.70;99.90;;;;;;5020557;28;20229;-63
2023/05/20 10:17:25;;;;;;;2.70;1.40;;;16.70;99.90;;;;;;5035555;28;20196;-63
2023/05/20 10:19:58;;;;;;;2.50;1.40;;;16.80;99.90;;;;;;5004063;28;20858;-63
2023/05/20 10:22:28;;;;;;;7.00;1.58;;;16.90;99.90;;;;;;5005232;28;20216;-63
2023/05/20 10:24:59;;;;;;;2.42;1.60;;;17.10;99.90;;;;;;5001180;28;20209;-63
2023/05/20 10:27:26;;;;;;;5.13;1.75;;;17.10;99.90;;;;;;5033832;28;20284;-63
2023/05/20 10:29:55;;;;;;;3.05;1.73;;;17.20;99.90;;;;;;5026054;28;20205;-63
2023/05/20 10:32:27;;;;;;;2.78;1.60;;;17.30;99.90;;;;;;5031353;28;20193;-63
2023/05/20 10:34:59;;;;;;;5.70;1.70;;;17.40;99.90;;;;;;5020569;28;20200;-63
2023/05/20 10:37:28;;;;;;;4.05;1.73;;;17.50;99.90;;;;;;5025645;28;20213;-63
2023/05/20 10:40:06;;;;;;;4.30;1.88;;;17.50;99.90;;;;;;5023250;28;21169;-65
2023/05/20 10:42:33;;;;;;;7.15;1.70;;;17.40;99.90;;;;;;5010121;28;20197;-64
2023/05/20 10:45:02;;;;;;;3.58;1.60;;;17.10;99.90;;;;;;5021353;28;20228;-63
2023/05/20 10:47:29;;;;;;;1.90;1.65;;;17.00;99.90;;;;;;5037359;28;22027;-63
2023/05/20 10:49:56;;;;;;;2.25;1.52;;;16.90;99.90;;;;;;4989445;28;21210;-63
2023/05/20 10:52:24;;;;;;;10.43;1.73;;;16.80;99.90;;;;;;5011135;28;20224;-64
2023/05/20 10:54:56;;;;;;;4.13;1.52;;;16.70;99.90;;;;;;5031083;28;20724;-63
2023/05/20 10:57:24;;;;;;;4.13;1.88;;;16.70;99.90;;;;;;5007481;28;20212;-64
2023/05/20 10:59:51;;;;;;;2.03;1.65;;;16.70;99.90;;;;;;5013203;28;20286;-64
2023/05/20 11:02:25;;;;;;;7.25;1.85;;;16.70;99.90;;;;;;5037334;28;20224;-64
2023/05/20 11:04:52;;;;;;;5.07;1.67;;;16.90;99.90;;;;;;5008513;28;20222;-64
2023/05/20 11:07:26;;;;;;;4.07;1.50;;;17.10;99.90;;;;;;5022383;28;20196;-64
2023/05/20 11:09:53;;;;;;;4.07;1.50;;;17.00;99.90;;;;;;5036884;28;20204;-64
2023/05/20 11:12:20;;;;;;;3.20;1.75;;;17.00;99.90;;;;;;5025145;28;20225;-64
2023/05/20 11:14:48;;;;;;;2.50;1.52;;;17.00;99.90;;;;;;5009031;28;20229;-64
2023/05/20 11:17:16;;;;;;;5.13;1.85;;;17.00;99.90;;;;;;5043057;28;20205;-64
2023/05/20 11:19:44;;;;;;;3.05;1.65;;;16.90;99.90;;;;;;5041851;28;20221;-64
2023/05/20 11:22:11;;;;;;;1.50;1.40;;;16.90;99.90;;;;;;5008127;28;20208;-63
2023/05/20 11:24:38;;;;;;;4.97;1.25;;;16.90;99.90;;;;;;5030451;28;20211;-64
2023/05/20 11:27:06;;;;;;;1.33;1.23;;;17.10;99.90;;;;;;5025991;28;20216;-64
2023/05/20 11:29:34;;;;;;;5.13;1.60;;;17.20;99.90;;;;;;5033425;28;20204;-64
2023/05/20 11:32:00;;;;;;;2.08;1.50;;;17.10;99.90;;;;;;5023209;28;20204;-64
2023/05/20 11:34:34;;;;;;;3.70;1.45;;;17.00;99.90;;;;;;5041918;28;20197;-64
2023/05/20 11:37:02;;;;;;;2.53;1.67;;;17.00;99.90;;;;;;5013008;28;20201;-65
2023/05/20 11:39:30;;;;;;;2.35;1.60;;;17.00;99.90;;;;;;5030082;28;20232;-64
2023/05/20 11:41:57;;;;;;;3.42;1.50;;;17.20;99.90;;;;;;5030112;28;20670;-64
2023/05/20 11:44:25;;;;;;;4.35;1.85;;;17.40;99.90;;;;;;5030619;28;20197;-64
2023/05/20 11:46:58;;;;;;;2.95;1.33;;;17.50;99.90;;;;;;5011251;28;20589;-64
2023/05/20 11:49:25;;;;;;;7.45;1.60;;;17.40;99.90;;;;;;5039222;28;20239;-64
2023/05/20 11:51:52;;;;;;;2.92;1.65;;;17.40;99.90;;;;;;5041212;28;20202;-65
2023/05/20 11:54:23;;;;;;;4.20;1.52;;;17.40;99.90;;;;;;5010757;28;20216;-64
2023/05/20 11:56:50;;;;;;;1.77;1.33;;;17.60;99.90;;;;;;5004330;28;20225;-64
2023/05/20 11:59:17;;;;;;;4.13;1.45;;;17.60;99.90;;;;;;5041061;28;20201;-64
2023/05/20 12:01:44;;;;;;;3.38;1.85;;;17.60;99.90;;;;;;5021146;28;20209;-63
2023/05/20 12:04:11;;;;;;;3.97;1.70;;;17.50;99.90;;;;;;5021183;28;20201;-63
2023/05/20 12:06:38;;;;;;;3.33;1.73;;;17.40;99.90;;;;;;5040296;28;20197;-64
2023/05/20 12:09:07;;;;;;;3.70;1.85;;;17.30;99.90;;;;;;5005356;28;20265;-64
2023/05/20 12:11:36;;;;;;;2.03;1.30;;;17.20;99.90;;;;;;5024723;28;20213;-64
2023/05/20 12:14:03;;;;;;;3.03;1.80;;;17.10;99.90;;;;;;5025925;28;20204;-64
2023/05/20 12:16:31;;;;;;;2.72;1.30;;;17.10;99.90;;;;;;5036371;28;21007;-63
2023/05/20 12:18:58;;;;;;;2.35;1.70;;;17.10;99.90;;;;;;5021905;28;21447;-63
2023/05/20 12:21:25;;;;;;;2.50;1.70;;;17.00;99.90;;;;;;5038669;28;20264;-63
2023/05/20 12:23:56;;;;;;;2.72;1.40;;;17.00;99.90;;;;;;5034245;28;20205;-64
2023/05/20 12:26:23;;;;;;;3.75;1.48;;;16.90;99.90;;;;;;5020558;28;20293;-64
2023/05/20 12:28:51;;;;;;;2.13;1.50;;;16.90;99.90;;;;;;5012754;28;20582;-63
2023/05/20 12:31:18;;;;;;;1.88;1.30;;;16.90;99.90;;;;;;5035736;28;20236;-64
2023/05/20 12:33:45;;;;;;;1.70;1.40;;;16.90;99.90;;;;;;5013051;28;20213;-64
2023/05/20 12:36:12;;;;;;;2.10;1.25;;;17.00;99.90;;;;;;5030231;28;20201;-64
2023/05/20 12:38:39;;;;;;;4.72;1.70;;;16.90;99.90;;;;;;5033909;28;20208;-64
2023/05/20 12:41:06;;;;;;;5.35;1.58;;;16.90;99.90;;;;;;4993956;28;20242;-64
2023/05/20 12:43:33;;;;;;;7.28;1.60;;;16.80;99.90;;;;;;5008691;28;20209;-64
2023/05/20 12:46:01;;;;;;;1.73;1.40;;;16.80;99.90;;;;;;5039693;28;20189;-64
2023/05/20 12:48:28;;;;;;;1.63;1.35;;;16.80;99.90;;;;;;5018266;28;20613;-64
2023/05/20 12:50:54;;;;;;;6.47;1.33;;;16.90;99.90;;;;;;5034705;28;20207;-64